sensor_id;sensor_type;location;lat;lon;timestamp;P1;durP1;ratioP1;P2;durP2;ratioP2
52554;SDS011;38455;52.710;6.502;2023-12-29T00:01:29;14.10;;;2.50;;
52554;SDS011;38455;52.710;6.502;2023-12-29T00:03:55;9.60;;;2.22;;
52554;SDS011;38455;52.710;6.502;2023-12-29T00:06:21;12.45;;;2.88;;
52554;SDS011;38455;52.710;6.502;2023-12-29T00:08:46;16.02;;;3.53;;
52554;SDS011;38455;52.710;6.502;2023-12-29T00:11:21;10.63;;;2.60;;
52554;SDS011;38455;52.710;6.502;2023-12-29T00:13:47;13.82;;;2.88;;
52554;SDS011;38455;52.710;6.502;2023-12-29T00:16:14;15.10;;;2.50;;
52554;SDS011;38455;52.710;6.502;2023-12-29T00:18:40;13.35;;;3.83;;
52554;SDS011;38455;52.710;6.502;2023-12-29T00:21:06;14.18;;;2.75;;
52554;SDS011;38455;52.710;6.502;2023-12-29T00:23:32;12.55;;;2.67;;
52554;SDS011;38455;52.710;6.502;2023-12-29T00:25:58;12.23;;;3.00;;
52554;SDS011;38455;52.710;6.502;2023-12-29T00:28:23;17.10;;;3.10;;
52554;SDS011;38455;52.710;6.502;2023-12-29T00:30:49;12.73;;;3.67;;
52554;SDS011;38455;52.710;6.502;2023-12-29T00:33:15;16.33;;;3.03;;
52554;SDS011;38455;52.710;6.502;2023-12-29T00:35:40;12.43;;;2.88;;
52554;SDS011;38455;52.710;6.502;2023-12-29T00:38:06;16.05;;;3.00;;
52554;SDS011;38455;52.710;6.502;2023-12-29T00:40:32;14.48;;;2.92;;
52554;SDS011;38455;52.710;6.502;2023-12-29T00:42:59;11.38;;;2.63;;
52554;SDS011;38455;52.710;6.502;2023-12-29T00:45:25;12.70;;;3.55;;
52554;SDS011;38455;52.710;6.502;2023-12-29T00:47:54;15.38;;;3.78;;
52554;SDS011;38455;52.710;6.502;2023-12-29T00:50:20;18.30;;;3.08;;
52554;SDS011;38455;52.710;6.502;2023-12-29T00:52:46;12.25;;;3.00;;
52554;SDS011;38455;52.710;6.502;2023-12-29T00:55:11;18.83;;;3.00;;
52554;SDS011;38455;52.710;6.502;2023-12-29T00:57:37;20.55;;;3.20;;
52554;SDS011;38455;52.710;6.502;2023-12-29T01:00:03;14.80;;;3.38;;
52554;SDS011;38455;52.710;6.502;2023-12-29T01:02:29;12.95;;;3.33;;
52554;SDS011;38455;52.710;6.502;2023-12-29T01:04:54;17.17;;;3.53;;
52554;SDS011;38455;52.710;6.502;2023-12-29T01:07:20;16.65;;;4.13;;
52554;SDS011;38455;52.710;6.502;2023-12-29T01:09:46;12.02;;;3.55;;
52554;SDS011;38455;52.710;6.502;2023-12-29T01:12:11;17.33;;;4.68;;
52554;SDS011;38455;52.710;6.502;2023-12-29T01:14:37;23.63;;;3.90;;
52554;SDS011;38455;52.710;6.502;2023-12-29T01:17:03;17.67;;;3.58;;
52554;SDS011;38455;52.710;6.502;2023-12-29T01:19:28;17.20;;;3.60;;
52554;SDS011;38455;52.710;6.502;2023-12-29T01:21:54;16.25;;;2.83;;
52554;SDS011;38455;52.710;6.502;2023-12-29T01:24:20;28.20;;;4.50;;
52554;SDS011;38455;52.710;6.502;2023-12-29T01:26:45;18.77;;;3.15;;
52554;SDS011;38455;52.710;6.502;2023-12-29T01:29:11;19.38;;;3.40;;
52554;SDS011;38455;52.710;6.502;2023-12-29T01:31:36;13.73;;;3.00;;
52554;SDS011;38455;52.710;6.502;2023-12-29T01:34:02;17.65;;;2.88;;
52554;SDS011;38455;52.710;6.502;2023-12-29T01:36:28;16.40;;;2.88;;
52554;SDS011;38455;52.710;6.502;2023-12-29T01:38:53;10.90;;;2.60;;
52554;SDS011;38455;52.710;6.502;2023-12-29T01:41:19;18.42;;;3.38;;
52554;SDS011;38455;52.710;6.502;2023-12-29T01:46:31;8.27;;;2.30;;
52554;SDS011;38455;52.710;6.502;2023-12-29T01:48:59;18.58;;;2.97;;
52554;SDS011;38455;52.710;6.502;2023-12-29T01:51:25;15.23;;;2.72;;
52554;SDS011;38455;52.710;6.502;2023-12-29T01:53:52;10.75;;;2.58;;
52554;SDS011;38455;52.710;6.502;2023-12-29T01:56:19;15.95;;;3.78;;
52554;SDS011;38455;52.710;6.502;2023-12-29T01:58:45;14.15;;;3.38;;
52554;SDS011;38455;52.710;6.502;2023-12-29T02:01:16;11.13;;;2.28;;
52554;SDS011;38455;52.710;6.502;2023-12-29T02:03:46;12.63;;;3.95;;
52554;SDS011;38455;52.710;6.502;2023-12-29T02:06:13;16.25;;;3.88;;
52554;SDS011;38455;52.710;6.502;2023-12-29T02:08:42;10.68;;;2.60;;
52554;SDS011;38455;52.710;6.502;2023-12-29T02:11:08;19.55;;;3.95;;
52554;SDS011;38455;52.710;6.502;2023-12-29T02:13:35;15.27;;;2.63;;
52554;SDS011;38455;52.710;6.502;2023-12-29T02:16:04;14.75;;;3.00;;
52554;SDS011;38455;52.710;6.502;2023-12-29T02:18:41;11.00;;;2.75;;
52554;SDS011;38455;52.710;6.502;2023-12-29T02:21:10;16.80;;;2.67;;
52554;SDS011;38455;52.710;6.502;2023-12-29T02:23:36;13.85;;;2.53;;
52554;SDS011;38455;52.710;6.502;2023-12-29T02:26:02;14.98;;;2.75;;
52554;SDS011;38455;52.710;6.502;2023-12-29T02:28:34;16.77;;;3.20;;
52554;SDS011;38455;52.710;6.502;2023-12-29T02:31:09;11.38;;;2.50;;
52554;SDS011;38455;52.710;6.502;2023-12-29T02:33:41;11.55;;;2.30;;
52554;SDS011;38455;52.710;6.502;2023-12-29T02:36:09;9.73;;;2.40;;
52554;SDS011;38455;52.710;6.502;2023-12-29T02:38:37;12.18;;;2.40;;
52554;SDS011;38455;52.710;6.502;2023-12-29T02:41:04;15.15;;;3.55;;
52554;SDS011;38455;52.710;6.502;2023-12-29T02:43:33;17.25;;;2.50;;
52554;SDS011;38455;52.710;6.502;2023-12-29T02:45:58;13.52;;;2.70;;
52554;SDS011;38455;52.710;6.502;2023-12-29T02:48:24;10.25;;;2.95;;
52554;SDS011;38455;52.710;6.502;2023-12-29T02:50:50;10.50;;;2.58;;
52554;SDS011;38455;52.710;6.502;2023-12-29T02:53:16;16.90;;;3.25;;
52554;SDS011;38455;52.710;6.502;2023-12-29T02:55:41;12.95;;;3.00;;
52554;SDS011;38455;52.710;6.502;2023-12-29T02:58:08;16.73;;;3.47;;
52554;SDS011;38455;52.710;6.502;2023-12-29T03:00:34;15.23;;;3.45;;
52554;SDS011;38455;52.710;6.502;2023-12-29T03:02:59;11.40;;;2.50;;
52554;SDS011;38455;52.710;6.502;2023-12-29T03:05:25;10.32;;;3.08;;
52554;SDS011;38455;52.710;6.502;2023-12-29T03:07:51;13.68;;;2.65;;
52554;SDS011;38455;52.710;6.502;2023-12-29T03:10:17;10.55;;;2.88;;
52554;SDS011;38455;52.710;6.502;2023-12-29T03:12:42;15.45;;;2.85;;
52554;SDS011;38455;52.710;6.502;2023-12-29T03:15:08;13.23;;;2.58;;
52554;SDS011;38455;52.710;6.502;2023-12-29T03:17:34;10.38;;;2.97;;
52554;SDS011;38455;52.710;6.502;2023-12-29T03:20:00;12.48;;;3.28;;
52554;SDS011;38455;52.710;6.502;2023-12-29T03:22:27;12.90;;;3.30;;
52554;SDS011;38455;52.710;6.502;2023-12-29T03:24:53;12.85;;;2.55;;
52554;SDS011;38455;52.710;6.502;2023-12-29T03:27:19;12.25;;;2.67;;
52554;SDS011;38455;52.710;6.502;2023-12-29T03:29:44;16.33;;;3.47;;
52554;SDS011;38455;52.710;6.502;2023-12-29T03:32:10;13.10;;;3.20;;
52554;SDS011;38455;52.710;6.502;2023-12-29T03:34:36;13.93;;;2.63;;
52554;SDS011;38455;52.710;6.502;2023-12-29T03:37:01;10.57;;;2.58;;
52554;SDS011;38455;52.710;6.502;2023-12-29T03:39:27;17.15;;;2.35;;
52554;SDS011;38455;52.710;6.502;2023-12-29T03:41:53;13.00;;;3.25;;
52554;SDS011;38455;52.710;6.502;2023-12-29T03:44:18;12.88;;;3.28;;
52554;SDS011;38455;52.710;6.502;2023-12-29T03:46:44;8.20;;;2.95;;
52554;SDS011;38455;52.710;6.502;2023-12-29T03:49:10;10.45;;;2.90;;
52554;SDS011;38455;52.710;6.502;2023-12-29T03:51:36;17.42;;;3.38;;
52554;SDS011;38455;52.710;6.502;2023-12-29T03:54:02;17.02;;;3.42;;
52554;SDS011;38455;52.710;6.502;2023-12-29T03:56:28;19.17;;;3.70;;
52554;SDS011;38455;52.710;6.502;2023-12-29T03:58:54;16.83;;;3.47;;
52554;SDS011;38455;52.710;6.502;2023-12-29T04:01:20;13.32;;;2.97;;
52554;SDS011;38455;52.710;6.502;2023-12-29T04:03:45;15.25;;;3.38;;
52554;SDS011;38455;52.710;6.502;2023-12-29T04:06:11;17.77;;;4.00;;
52554;SDS011;38455;52.710;6.502;2023-12-29T04:08:37;18.77;;;4.93;;
52554;SDS011;38455;52.710;6.502;2023-12-29T04:11:03;17.80;;;3.90;;
52554;SDS011;38455;52.710;6.502;2023-12-29T04:13:30;14.73;;;3.17;;
52554;SDS011;38455;52.710;6.502;2023-12-29T04:15:56;22.67;;;3.70;;
52554;SDS011;38455;52.710;6.502;2023-12-29T04:18:22;25.65;;;3.50;;
52554;SDS011;38455;52.710;6.502;2023-12-29T04:20:49;17.42;;;3.13;;
52554;SDS011;38455;52.710;6.502;2023-12-29T04:23:15;21.60;;;3.55;;
52554;SDS011;38455;52.710;6.502;2023-12-29T04:25:41;25.85;;;4.30;;
52554;SDS011;38455;52.710;6.502;2023-12-29T04:28:07;21.00;;;4.47;;
52554;SDS011;38455;52.710;6.502;2023-12-29T04:30:33;19.95;;;4.05;;
52554;SDS011;38455;52.710;6.502;2023-12-29T04:32:59;23.30;;;4.70;;
52554;SDS011;38455;52.710;6.502;2023-12-29T04:35:24;19.42;;;3.55;;
52554;SDS011;38455;52.710;6.502;2023-12-29T04:37:50;20.05;;;4.05;;
52554;SDS011;38455;52.710;6.502;2023-12-29T04:40:17;20.90;;;3.38;;
52554;SDS011;38455;52.710;6.502;2023-12-29T04:42:43;15.73;;;3.28;;
52554;SDS011;38455;52.710;6.502;2023-12-29T04:45:09;12.60;;;3.55;;
52554;SDS011;38455;52.710;6.502;2023-12-29T04:47:36;18.80;;;3.45;;
52554;SDS011;38455;52.710;6.502;2023-12-29T04:50:02;18.27;;;3.80;;
52554;SDS011;38455;52.710;6.502;2023-12-29T04:52:28;15.48;;;3.25;;
52554;SDS011;38455;52.710;6.502;2023-12-29T04:54:54;22.17;;;4.00;;
52554;SDS011;38455;52.710;6.502;2023-12-29T04:57:20;20.05;;;3.83;;
52554;SDS011;38455;52.710;6.502;2023-12-29T04:59:46;14.63;;;3.40;;
52554;SDS011;38455;52.710;6.502;2023-12-29T05:02:11;21.38;;;3.65;;
52554;SDS011;38455;52.710;6.502;2023-12-29T05:04:37;24.25;;;3.92;;
52554;SDS011;38455;52.710;6.502;2023-12-29T05:07:08;18.33;;;4.22;;
52554;SDS011;38455;52.710;6.502;2023-12-29T05:09:34;19.67;;;4.15;;
52554;SDS011;38455;52.710;6.502;2023-12-29T05:12:00;20.73;;;3.50;;
52554;SDS011;38455;52.710;6.502;2023-12-29T05:14:25;20.63;;;4.40;;
52554;SDS011;38455;52.710;6.502;2023-12-29T05:16:51;15.63;;;3.70;;
52554;SDS011;38455;52.710;6.502;2023-12-29T05:19:17;23.05;;;4.05;;
52554;SDS011;38455;52.710;6.502;2023-12-29T05:21:42;23.00;;;3.45;;
52554;SDS011;38455;52.710;6.502;2023-12-29T05:24:08;22.30;;;3.50;;
52554;SDS011;38455;52.710;6.502;2023-12-29T05:26:34;38.90;;;4.93;;
52554;SDS011;38455;52.710;6.502;2023-12-29T05:29:00;22.73;;;3.63;;
52554;SDS011;38455;52.710;6.502;2023-12-29T05:31:25;19.70;;;3.90;;
52554;SDS011;38455;52.710;6.502;2023-12-29T05:33:51;23.52;;;4.35;;
52554;SDS011;38455;52.710;6.502;2023-12-29T05:36:17;27.05;;;4.45;;
52554;SDS011;38455;52.710;6.502;2023-12-29T05:38:44;14.27;;;3.10;;
52554;SDS011;38455;52.710;6.502;2023-12-29T05:41:15;26.90;;;4.68;;
52554;SDS011;38455;52.710;6.502;2023-12-29T05:43:41;24.30;;;4.22;;
52554;SDS011;38455;52.710;6.502;2023-12-29T05:46:10;21.50;;;4.65;;
52554;SDS011;38455;52.710;6.502;2023-12-29T05:48:39;22.80;;;4.85;;
52554;SDS011;38455;52.710;6.502;2023-12-29T05:51:09;26.23;;;4.10;;
52554;SDS011;38455;52.710;6.502;2023-12-29T05:53:35;28.02;;;4.20;;
52554;SDS011;38455;52.710;6.502;2023-12-29T05:56:01;27.13;;;5.05;;
52554;SDS011;38455;52.710;6.502;2023-12-29T05:58:27;21.52;;;3.90;;
52554;SDS011;38455;52.710;6.502;2023-12-29T06:00:56;23.88;;;3.80;;
52554;SDS011;38455;52.710;6.502;2023-12-29T06:03:23;24.17;;;6.18;;
52554;SDS011;38455;52.710;6.502;2023-12-29T06:05:49;26.40;;;4.65;;
52554;SDS011;38455;52.710;6.502;2023-12-29T06:08:15;27.92;;;4.60;;
52554;SDS011;38455;52.710;6.502;2023-12-29T06:10:41;25.77;;;5.70;;
52554;SDS011;38455;52.710;6.502;2023-12-29T06:13:06;26.48;;;4.47;;
52554;SDS011;38455;52.710;6.502;2023-12-29T06:15:32;18.02;;;3.85;;
52554;SDS011;38455;52.710;6.502;2023-12-29T06:17:58;28.55;;;4.90;;
52554;SDS011;38455;52.710;6.502;2023-12-29T06:20:24;24.80;;;4.57;;
52554;SDS011;38455;52.710;6.502;2023-12-29T06:22:50;17.40;;;4.10;;
52554;SDS011;38455;52.710;6.502;2023-12-29T06:25:16;24.08;;;4.82;;
52554;SDS011;38455;52.710;6.502;2023-12-29T06:27:42;22.42;;;4.15;;
52554;SDS011;38455;52.710;6.502;2023-12-29T06:30:08;25.33;;;3.88;;
52554;SDS011;38455;52.710;6.502;2023-12-29T06:32:35;24.35;;;4.22;;
52554;SDS011;38455;52.710;6.502;2023-12-29T06:35:01;21.15;;;5.28;;
52554;SDS011;38455;52.710;6.502;2023-12-29T06:37:28;30.08;;;5.88;;
52554;SDS011;38455;52.710;6.502;2023-12-29T06:39:53;30.67;;;6.53;;
52554;SDS011;38455;52.710;6.502;2023-12-29T06:42:19;30.98;;;5.38;;
52554;SDS011;38455;52.710;6.502;2023-12-29T06:44:45;33.15;;;6.25;;
52554;SDS011;38455;52.710;6.502;2023-12-29T06:47:11;25.50;;;5.28;;
52554;SDS011;38455;52.710;6.502;2023-12-29T06:49:37;31.83;;;6.05;;
52554;SDS011;38455;52.710;6.502;2023-12-29T06:52:04;27.50;;;4.65;;
52554;SDS011;38455;52.710;6.502;2023-12-29T06:54:30;26.55;;;5.18;;
52554;SDS011;38455;52.710;6.502;2023-12-29T06:56:56;23.88;;;5.40;;
52554;SDS011;38455;52.710;6.502;2023-12-29T06:59:22;31.42;;;5.03;;
52554;SDS011;38455;52.710;6.502;2023-12-29T07:01:48;39.35;;;5.07;;
52554;SDS011;38455;52.710;6.502;2023-12-29T07:04:14;34.22;;;4.72;;
52554;SDS011;38455;52.710;6.502;2023-12-29T07:06:40;29.45;;;4.97;;
52554;SDS011;38455;52.710;6.502;2023-12-29T07:09:07;26.60;;;4.30;;
52554;SDS011;38455;52.710;6.502;2023-12-29T07:11:33;31.83;;;4.78;;
52554;SDS011;38455;52.710;6.502;2023-12-29T07:13:59;27.30;;;4.68;;
52554;SDS011;38455;52.710;6.502;2023-12-29T07:16:25;26.75;;;6.03;;
52554;SDS011;38455;52.710;6.502;2023-12-29T07:18:51;32.72;;;5.07;;
52554;SDS011;38455;52.710;6.502;2023-12-29T07:21:17;27.85;;;6.78;;
52554;SDS011;38455;52.710;6.502;2023-12-29T07:23:43;27.50;;;5.80;;
52554;SDS011;38455;52.710;6.502;2023-12-29T07:26:09;16.83;;;4.63;;
52554;SDS011;38455;52.710;6.502;2023-12-29T07:28:35;33.42;;;5.70;;
52554;SDS011;38455;52.710;6.502;2023-12-29T07:31:01;24.67;;;5.28;;
52554;SDS011;38455;52.710;6.502;2023-12-29T07:33:27;28.83;;;5.60;;
52554;SDS011;38455;52.710;6.502;2023-12-29T07:35:53;28.73;;;5.20;;
52554;SDS011;38455;52.710;6.502;2023-12-29T07:38:19;27.90;;;5.57;;
52554;SDS011;38455;52.710;6.502;2023-12-29T07:40:44;31.77;;;5.38;;
52554;SDS011;38455;52.710;6.502;2023-12-29T07:43:10;28.63;;;4.97;;
52554;SDS011;38455;52.710;6.502;2023-12-29T07:45:36;19.60;;;4.43;;
52554;SDS011;38455;52.710;6.502;2023-12-29T07:48:02;21.77;;;5.43;;
52554;SDS011;38455;52.710;6.502;2023-12-29T07:50:28;21.25;;;4.43;;
52554;SDS011;38455;52.710;6.502;2023-12-29T07:52:55;22.27;;;4.68;;
52554;SDS011;38455;52.710;6.502;2023-12-29T07:55:20;23.85;;;4.13;;
52554;SDS011;38455;52.710;6.502;2023-12-29T07:57:46;22.77;;;5.60;;
52554;SDS011;38455;52.710;6.502;2023-12-29T08:00:16;20.40;;;4.28;;
52554;SDS011;38455;52.710;6.502;2023-12-29T08:02:42;24.67;;;4.95;;
52554;SDS011;38455;52.710;6.502;2023-12-29T08:05:08;24.02;;;4.57;;
52554;SDS011;38455;52.710;6.502;2023-12-29T08:07:34;25.63;;;4.00;;
52554;SDS011;38455;52.710;6.502;2023-12-29T08:10:02;21.08;;;4.15;;
52554;SDS011;38455;52.710;6.502;2023-12-29T08:12:31;24.10;;;4.07;;
52554;SDS011;38455;52.710;6.502;2023-12-29T08:15:02;31.67;;;5.25;;
52554;SDS011;38455;52.710;6.502;2023-12-29T08:17:28;28.50;;;4.75;;
52554;SDS011;38455;52.710;6.502;2023-12-29T08:19:54;22.35;;;4.60;;
52554;SDS011;38455;52.710;6.502;2023-12-29T08:22:20;28.67;;;4.50;;
52554;SDS011;38455;52.710;6.502;2023-12-29T08:24:46;22.77;;;5.63;;
52554;SDS011;38455;52.710;6.502;2023-12-29T08:27:12;25.55;;;4.65;;
52554;SDS011;38455;52.710;6.502;2023-12-29T08:29:38;18.60;;;4.60;;
52554;SDS011;38455;52.710;6.502;2023-12-29T08:32:04;26.23;;;4.00;;
52554;SDS011;38455;52.710;6.502;2023-12-29T08:34:30;25.95;;;4.03;;
52554;SDS011;38455;52.710;6.502;2023-12-29T08:36:56;18.45;;;4.15;;
52554;SDS011;38455;52.710;6.502;2023-12-29T08:39:22;26.65;;;4.18;;
52554;SDS011;38455;52.710;6.502;2023-12-29T08:41:48;24.30;;;5.40;;
52554;SDS011;38455;52.710;6.502;2023-12-29T08:44:16;19.35;;;3.85;;
52554;SDS011;38455;52.710;6.502;2023-12-29T08:46:42;17.80;;;3.63;;
52554;SDS011;38455;52.710;6.502;2023-12-29T08:49:08;19.77;;;3.97;;
52554;SDS011;38455;52.710;6.502;2023-12-29T08:51:34;17.00;;;2.88;;
52554;SDS011;38455;52.710;6.502;2023-12-29T08:53:59;16.60;;;3.40;;
52554;SDS011;38455;52.710;6.502;2023-12-29T08:56:25;20.23;;;4.40;;
52554;SDS011;38455;52.710;6.502;2023-12-29T08:58:51;14.05;;;3.28;;
52554;SDS011;38455;52.710;6.502;2023-12-29T09:01:17;14.10;;;2.72;;
52554;SDS011;38455;52.710;6.502;2023-12-29T09:03:43;21.90;;;4.25;;
52554;SDS011;38455;52.710;6.502;2023-12-29T09:06:09;12.20;;;2.95;;
52554;SDS011;38455;52.710;6.502;2023-12-29T09:08:35;11.38;;;3.65;;
52554;SDS011;38455;52.710;6.502;2023-12-29T09:11:01;12.63;;;3.05;;
52554;SDS011;38455;52.710;6.502;2023-12-29T09:13:27;14.50;;;3.00;;
52554;SDS011;38455;52.710;6.502;2023-12-29T09:15:54;14.38;;;3.45;;
52554;SDS011;38455;52.710;6.502;2023-12-29T09:18:20;13.02;;;2.70;;
52554;SDS011;38455;52.710;6.502;2023-12-29T09:20:45;10.10;;;2.40;;
52554;SDS011;38455;52.710;6.502;2023-12-29T09:23:12;15.15;;;3.42;;
52554;SDS011;38455;52.710;6.502;2023-12-29T09:25:38;11.07;;;2.80;;
52554;SDS011;38455;52.710;6.502;2023-12-29T09:28:04;10.05;;;2.55;;
52554;SDS011;38455;52.710;6.502;2023-12-29T09:30:30;13.43;;;2.70;;
52554;SDS011;38455;52.710;6.502;2023-12-29T09:32:56;9.13;;;2.40;;
52554;SDS011;38455;52.710;6.502;2023-12-29T09:35:21;10.25;;;3.35;;
52554;SDS011;38455;52.710;6.502;2023-12-29T09:37:47;16.98;;;2.95;;
52554;SDS011;38455;52.710;6.502;2023-12-29T09:40:16;13.20;;;2.95;;
52554;SDS011;38455;52.710;6.502;2023-12-29T09:42:45;7.72;;;2.35;;
52554;SDS011;38455;52.710;6.502;2023-12-29T09:45:12;8.77;;;2.67;;
52554;SDS011;38455;52.710;6.502;2023-12-29T09:47:39;8.30;;;2.75;;
52554;SDS011;38455;52.710;6.502;2023-12-29T09:50:07;7.80;;;2.22;;
52554;SDS011;38455;52.710;6.502;2023-12-29T09:52:36;9.40;;;2.30;;
52554;SDS011;38455;52.710;6.502;2023-12-29T09:55:04;9.23;;;2.15;;
52554;SDS011;38455;52.710;6.502;2023-12-29T09:57:34;9.65;;;2.97;;
52554;SDS011;38455;52.710;6.502;2023-12-29T10:00:00;9.93;;;2.50;;
52554;SDS011;38455;52.710;6.502;2023-12-29T10:02:27;8.63;;;2.35;;
52554;SDS011;38455;52.710;6.502;2023-12-29T10:04:53;7.20;;;2.60;;
52554;SDS011;38455;52.710;6.502;2023-12-29T10:07:25;12.45;;;3.00;;
52554;SDS011;38455;52.710;6.502;2023-12-29T10:09:55;11.40;;;2.72;;
52554;SDS011;38455;52.710;6.502;2023-12-29T10:12:23;10.05;;;2.33;;
52554;SDS011;38455;52.710;6.502;2023-12-29T10:20:47;4.28;;;0.98;;
52554;SDS011;38455;52.710;6.502;2023-12-29T10:23:06;2.90;;;0.80;;
52554;SDS011;38455;52.710;6.502;2023-12-29T10:25:38;2.55;;;0.63;;
52554;SDS011;38455;52.710;6.502;2023-12-29T10:28:04;3.72;;;0.68;;
52554;SDS011;38455;52.710;6.502;2023-12-29T10:30:31;2.28;;;0.70;;
52554;SDS011;38455;52.710;6.502;2023-12-29T10:32:57;10.18;;;1.40;;
52554;SDS011;38455;52.710;6.502;2023-12-29T10:35:25;4.78;;;1.00;;
52554;SDS011;38455;52.710;6.502;2023-12-29T10:37:51;5.97;;;1.20;;
52554;SDS011;38455;52.710;6.502;2023-12-29T10:40:17;4.88;;;0.90;;
52554;SDS011;38455;52.710;6.502;2023-12-29T10:42:53;6.50;;;1.00;;
52554;SDS011;38455;52.710;6.502;2023-12-29T10:47:46;7.57;;;1.58;;
52554;SDS011;38455;52.710;6.502;2023-12-29T10:50:11;8.40;;;1.30;;
52554;SDS011;38455;52.710;6.502;2023-12-29T10:52:37;6.15;;;1.10;;
52554;SDS011;38455;52.710;6.502;2023-12-29T10:55:06;10.68;;;1.40;;
52554;SDS011;38455;52.710;6.502;2023-12-29T10:57:33;8.90;;;1.75;;
52554;SDS011;38455;52.710;6.502;2023-12-29T11:00:00;9.90;;;1.90;;
52554;SDS011;38455;52.710;6.502;2023-12-29T11:02:26;8.82;;;1.60;;
52554;SDS011;38455;52.710;6.502;2023-12-29T11:05:00;6.93;;;1.77;;
52554;SDS011;38455;52.710;6.502;2023-12-29T11:07:33;13.48;;;2.22;;
52554;SDS011;38455;52.710;6.502;2023-12-29T11:10:01;9.73;;;2.05;;
52554;SDS011;38455;52.710;6.502;2023-12-29T11:15:03;5.25;;;1.60;;
52554;SDS011;38455;52.710;6.502;2023-12-29T11:17:30;7.85;;;1.42;;
52554;SDS011;38455;52.710;6.502;2023-12-29T11:20:00;9.85;;;1.90;;
52554;SDS011;38455;52.710;6.502;2023-12-29T11:22:30;10.80;;;2.70;;
52554;SDS011;38455;52.710;6.502;2023-12-29T11:24:57;18.08;;;2.90;;
52554;SDS011;38455;52.710;6.502;2023-12-29T11:27:27;22.27;;;4.13;;
52554;SDS011;38455;52.710;6.502;2023-12-29T11:29:55;14.38;;;2.15;;
52554;SDS011;38455;52.710;6.502;2023-12-29T11:32:24;8.90;;;2.63;;
52554;SDS011;38455;52.710;6.502;2023-12-29T11:35:02;12.80;;;2.95;;
52554;SDS011;38455;52.710;6.502;2023-12-29T11:37:43;12.70;;;3.35;;
52554;SDS011;38455;52.710;6.502;2023-12-29T11:40:19;12.68;;;2.63;;
52554;SDS011;38455;52.710;6.502;2023-12-29T11:42:49;14.93;;;2.72;;
52554;SDS011;38455;52.710;6.502;2023-12-29T11:45:24;11.50;;;2.83;;
52554;SDS011;38455;52.710;6.502;2023-12-29T11:47:53;10.75;;;3.05;;
52554;SDS011;38455;52.710;6.502;2023-12-29T11:50:27;12.52;;;2.97;;
52554;SDS011;38455;52.710;6.502;2023-12-29T11:55:27;10.85;;;2.67;;
52554;SDS011;38455;52.710;6.502;2023-12-29T11:58:00;13.27;;;2.97;;
52554;SDS011;38455;52.710;6.502;2023-12-29T12:00:45;17.35;;;3.15;;
52554;SDS011;38455;52.710;6.502;2023-12-29T12:03:30;13.18;;;2.67;;
52554;SDS011;38455;52.710;6.502;2023-12-29T12:05:59;14.10;;;3.20;;
52554;SDS011;38455;52.710;6.502;2023-12-29T12:14:04;14.30;;;2.63;;
52554;SDS011;38455;52.710;6.502;2023-12-29T12:16:48;17.65;;;3.28;;
52554;SDS011;38455;52.710;6.502;2023-12-29T12:19:15;12.68;;;3.22;;
52554;SDS011;38455;52.710;6.502;2023-12-29T12:21:42;13.27;;;2.33;;
52554;SDS011;38455;52.710;6.502;2023-12-29T12:24:14;17.27;;;2.60;;
52554;SDS011;38455;52.710;6.502;2023-12-29T12:26:40;11.25;;;2.83;;
52554;SDS011;38455;52.710;6.502;2023-12-29T12:29:06;19.55;;;3.22;;
52554;SDS011;38455;52.710;6.502;2023-12-29T12:31:33;15.23;;;3.58;;
52554;SDS011;38455;52.710;6.502;2023-12-29T12:33:59;14.55;;;2.35;;
52554;SDS011;38455;52.710;6.502;2023-12-29T12:36:28;14.48;;;2.80;;
52554;SDS011;38455;52.710;6.502;2023-12-29T12:38:55;10.77;;;3.08;;
52554;SDS011;38455;52.710;6.502;2023-12-29T12:41:22;21.23;;;3.30;;
52554;SDS011;38455;52.710;6.502;2023-12-29T12:46:32;11.68;;;3.00;;
52554;SDS011;38455;52.710;6.502;2023-12-29T12:48:59;13.35;;;2.70;;
52554;SDS011;38455;52.710;6.502;2023-12-29T12:51:25;11.25;;;2.75;;
52554;SDS011;38455;52.710;6.502;2023-12-29T12:53:51;13.50;;;2.70;;
52554;SDS011;38455;52.710;6.502;2023-12-29T12:56:18;12.77;;;2.45;;
52554;SDS011;38455;52.710;6.502;2023-12-29T12:58:45;17.92;;;3.13;;
52554;SDS011;38455;52.710;6.502;2023-12-29T13:01:11;13.27;;;2.45;;
52554;SDS011;38455;52.710;6.502;2023-12-29T13:03:38;15.82;;;2.85;;
52554;SDS011;38455;52.710;6.502;2023-12-29T13:06:04;16.85;;;3.63;;
52554;SDS011;38455;52.710;6.502;2023-12-29T13:08:30;10.52;;;2.90;;
52554;SDS011;38455;52.710;6.502;2023-12-29T13:10:58;14.13;;;2.80;;
52554;SDS011;38455;52.710;6.502;2023-12-29T13:13:35;14.02;;;3.00;;
52554;SDS011;38455;52.710;6.502;2023-12-29T13:16:01;19.83;;;3.55;;
52554;SDS011;38455;52.710;6.502;2023-12-29T13:18:28;14.15;;;3.67;;
52554;SDS011;38455;52.710;6.502;2023-12-29T13:20:56;15.75;;;2.72;;
52554;SDS011;38455;52.710;6.502;2023-12-29T13:23:25;21.88;;;4.82;;
52554;SDS011;38455;52.710;6.502;2023-12-29T13:25:54;14.00;;;2.95;;
52554;SDS011;38455;52.710;6.502;2023-12-29T13:28:22;13.18;;;2.45;;
52554;SDS011;38455;52.710;6.502;2023-12-29T13:30:48;15.30;;;2.78;;
52554;SDS011;38455;52.710;6.502;2023-12-29T13:33:26;14.52;;;2.63;;
52554;SDS011;38455;52.710;6.502;2023-12-29T13:36:09;14.80;;;3.05;;
52554;SDS011;38455;52.710;6.502;2023-12-29T13:38:44;14.75;;;3.42;;
52554;SDS011;38455;52.710;6.502;2023-12-29T13:41:18;9.93;;;3.83;;
52554;SDS011;38455;52.710;6.502;2023-12-29T13:43:46;10.68;;;2.45;;
52554;SDS011;38455;52.710;6.502;2023-12-29T13:46:13;12.52;;;2.45;;
52554;SDS011;38455;52.710;6.502;2023-12-29T13:48:41;20.25;;;8.88;;
52554;SDS011;38455;52.710;6.502;2023-12-29T13:51:09;14.32;;;2.88;;
52554;SDS011;38455;52.710;6.502;2023-12-29T13:53:35;14.77;;;2.53;;
52554;SDS011;38455;52.710;6.502;2023-12-29T13:56:10;12.93;;;2.92;;
52554;SDS011;38455;52.710;6.502;2023-12-29T13:58:36;25.48;;;6.63;;
52554;SDS011;38455;52.710;6.502;2023-12-29T14:01:03;17.00;;;4.97;;
52554;SDS011;38455;52.710;6.502;2023-12-29T14:03:32;22.42;;;8.68;;
52554;SDS011;38455;52.710;6.502;2023-12-29T14:06:07;10.52;;;2.75;;
52554;SDS011;38455;52.710;6.502;2023-12-29T14:08:40;17.38;;;3.30;;
52554;SDS011;38455;52.710;6.502;2023-12-29T14:11:09;14.32;;;2.63;;
52554;SDS011;38455;52.710;6.502;2023-12-29T14:13:40;9.43;;;2.30;;
52554;SDS011;38455;52.710;6.502;2023-12-29T14:16:09;13.02;;;2.45;;
52554;SDS011;38455;52.710;6.502;2023-12-29T14:21:21;8.40;;;1.85;;
52554;SDS011;38455;52.710;6.502;2023-12-29T14:26:41;11.38;;;2.58;;
52554;SDS011;38455;52.710;6.502;2023-12-29T14:29:10;9.98;;;2.15;;
52554;SDS011;38455;52.710;6.502;2023-12-29T14:31:41;13.10;;;2.38;;
52554;SDS011;38455;52.710;6.502;2023-12-29T14:34:08;14.15;;;2.50;;
52554;SDS011;38455;52.710;6.502;2023-12-29T14:36:34;11.98;;;2.20;;
52554;SDS011;38455;52.710;6.502;2023-12-29T14:39:01;10.85;;;2.53;;
52554;SDS011;38455;52.710;6.502;2023-12-29T14:41:28;12.02;;;2.55;;
52554;SDS011;38455;52.710;6.502;2023-12-29T14:43:54;15.40;;;3.15;;
52554;SDS011;38455;52.710;6.502;2023-12-29T14:46:19;13.10;;;2.33;;
52554;SDS011;38455;52.710;6.502;2023-12-29T14:48:45;14.73;;;2.90;;
52554;SDS011;38455;52.710;6.502;2023-12-29T14:51:11;10.82;;;3.33;;
52554;SDS011;38455;52.710;6.502;2023-12-29T14:53:37;13.98;;;2.63;;
52554;SDS011;38455;52.710;6.502;2023-12-29T14:56:04;14.93;;;3.22;;
52554;SDS011;38455;52.710;6.502;2023-12-29T14:58:30;17.95;;;2.78;;
52554;SDS011;38455;52.710;6.502;2023-12-29T15:00:58;14.52;;;2.75;;
52554;SDS011;38455;52.710;6.502;2023-12-29T15:03:24;19.33;;;3.03;;
52554;SDS011;38455;52.710;6.502;2023-12-29T15:05:50;12.02;;;2.28;;